sensor_id;sensor_type;location;lat;lon;timestamp;temperature;humidity
55173;DHT22;41061;52.822;6.860;2023-11-19T02:58:50;12.00;99.90
55173;DHT22;41061;52.822;6.860;2023-11-19T03:01:22;12.00;99.90
55173;DHT22;41061;52.822;6.860;2023-11-19T03:04:00;12.10;99.90
55173;DHT22;41061;52.822;6.860;2023-11-19T03:06:27;12.20;99.90
55173;DHT22;41061;52.822;6.860;2023-11-19T03:08:52;12.20;99.90
55173;DHT22;41061;52.822;6.860;2023-11-19T03:11:18;12.30;99.90
55173;DHT22;41061;52.822;6.860;2023-11-19T03:13:44;12.30;99.90
55173;DHT22;41061;52.822;6.860;2023-11-19T03:16:09;12.40;99.90
55173;DHT22;41061;52.822;6.860;2023-11-19T03:18:37;12.40;99.90
55173;DHT22;41061;52.822;6.860;2023-11-19T03:21:05;12.40;99.90
55173;DHT22;41061;52.822;6.860;2023-11-19T03:23:31;12.40;99.90
55173;DHT22;41061;52.822;6.860;2023-11-19T03:25:57;12.40;99.90
55173;DHT22;41061;52.822;6.860;2023-11-19T03:28:22;12.40;99.90
55173;DHT22;41061;52.822;6.860;2023-11-19T03:30:48;12.50;99.90
55173;DHT22;41061;52.822;6.860;2023-11-19T03:33:14;12.50;99.90
55173;DHT22;41061;52.822;6.860;2023-11-19T03:35:39;12.50;99.90
55173;DHT22;41061;52.822;6.860;2023-11-19T03:38:06;12.50;99.90
55173;DHT22;41061;52.822;6.860;2023-11-19T03:40:32;12.50;99.90
55173;DHT22;41061;52.822;6.860;2023-11-19T03:42:58;12.50;99.90
55173;DHT22;41061;52.822;6.860;2023-11-19T03:45:24;12.60;99.90
55173;DHT22;41061;52.822;6.860;2023-11-19T03:47:50;12.60;99.90
55173;DHT22;41061;52.822;6.860;2023-11-19T03:50:16;12.50;99.90
55173;DHT22;41061;52.822;6.860;2023-11-19T03:52:43;12.60;99.90
55173;DHT22;41061;52.822;6.860;2023-11-19T03:55:09;12.60;99.90
55173;DHT22;41061;52.822;6.860;2023-11-19T03:57:35;12.60;99.90
55173;DHT22;41061;52.822;6.860;2023-11-19T04:00:01;12.60;99.90
55173;DHT22;41061;52.822;6.860;2023-11-19T04:02:34;12.50;99.90
55173;DHT22;41061;52.822;6.860;2023-11-19T04:04:59;12.60;99.90
55173;DHT22;41061;52.822;6.860;2023-11-19T04:07:25;12.60;99.90
55173;DHT22;41061;52.822;6.860;2023-11-19T04:09:51;12.50;99.90
55173;DHT22;41061;52.822;6.860;2023-11-19T04:12:17;12.60;99.90
55173;DHT22;41061;52.822;6.860;2023-11-19T04:14:42;12.60;99.90
55173;DHT22;41061;52.822;6.860;2023-11-19T04:17:09;12.60;99.90
55173;DHT22;41061;52.822;6.860;2023-11-19T04:19:35;12.60;99.90
55173;DHT22;41061;52.822;6.860;2023-11-19T04:22:01;12.60;99.90
55173;DHT22;41061;52.822;6.860;2023-11-19T04:24:27;12.60;99.90
55173;DHT22;41061;52.822;6.860;2023-11-19T04:26:53;12.60;99.90
55173;DHT22;41061;52.822;6.860;2023-11-19T04:29:19;12.60;99.90
55173;DHT22;41061;52.822;6.860;2023-11-19T04:31:45;12.60;99.90
55173;DHT22;41061;52.822;6.860;2023-11-19T04:34:11;12.60;99.90
55173;DHT22;41061;52.822;6.860;2023-11-19T04:36:37;12.50;99.90
55173;DHT22;41061;52.822;6.860;2023-11-19T04:39:04;12.50;99.90
55173;DHT22;41061;52.822;6.860;2023-11-19T04:41:51;12.50;99.90
55173;DHT22;41061;52.822;6.860;2023-11-19T04:44:20;12.50;99.90
55173;DHT22;41061;52.822;6.860;2023-11-19T04:46:46;12.60;99.90
55173;DHT22;41061;52.822;6.860;2023-11-19T04:49:13;12.60;99.90
55173;DHT22;41061;52.822;6.860;2023-11-19T04:51:45;12.60;99.90
55173;DHT22;41061;52.822;6.860;2023-11-19T04:54:12;12.60;99.90
55173;DHT22;41061;52.822;6.860;2023-11-19T04:56:38;12.60;99.90
55173;DHT22;41061;52.822;6.860;2023-11-19T04:59:05;12.60;99.90
55173;DHT22;41061;52.822;6.860;2023-11-19T05:01:35;12.60;99.90
55173;DHT22;41061;52.822;6.860;2023-11-19T05:04:01;12.60;99.90
55173;DHT22;41061;52.822;6.860;2023-11-19T05:06:28;12.50;99.90
55173;DHT22;41061;52.822;6.860;2023-11-19T05:08:55;12.50;99.90
55173;DHT22;41061;52.822;6.860;2023-11-19T05:11:21;12.50;99.90
55173;DHT22;41061;52.822;6.860;2023-11-19T05:13:47;12.50;99.90
55173;DHT22;41061;52.822;6.860;2023-11-19T05:16:13;12.50;99.90
55173;DHT22;41061;52.822;6.860;2023-11-19T05:18:41;12.50;99.90
55173;DHT22;41061;52.822;6.860;2023-11-19T05:21:07;12.50;99.90
55173;DHT22;41061;52.822;6.860;2023-11-19T05:23:33;12.50;99.90
55173;DHT22;41061;52.822;6.860;2023-11-19T05:26:02;12.40;99.90
55173;DHT22;41061;52.822;6.860;2023-11-19T05:28:28;12.40;99.90
55173;DHT22;41061;52.822;6.860;2023-11-19T05:30:54;12.40;99.90
55173;DHT22;41061;52.822;6.860;2023-11-19T05:33:21;12.40;99.90
55173;DHT22;41061;52.822;6.860;2023-11-19T05:35:46;12.30;99.90
55173;DHT22;41061;52.822;6.860;2023-11-19T05:38:12;12.30;99.90
55173;DHT22;41061;52.822;6.860;2023-11-19T05:40:38;12.30;99.90
55173;DHT22;41061;52.822;6.860;2023-11-19T07:45:26;12.00;99.90
55173;DHT22;41061;52.822;6.860;2023-11-19T07:47:52;11.90;99.90
55173;DHT22;41061;52.822;6.860;2023-11-19T07:50:18;11.90;99.90
55173;DHT22;41061;52.822;6.860;2023-11-19T07:52:45;11.90;99.90
55173;DHT22;41061;52.822;6.860;2023-11-19T07:55:11;11.90;99.90
55173;DHT22;41061;52.822;6.860;2023-11-19T07:57:37;11.90;99.90
55173;DHT22;41061;52.822;6.860;2023-11-19T08:00:04;11.90;99.90
55173;DHT22;41061;52.822;6.860;2023-11-19T08:02:30;11.90;99.90
55173;DHT22;41061;52.822;6.860;2023-11-19T08:04:55;11.90;99.90
55173;DHT22;41061;52.822;6.860;2023-11-19T08:07:21;11.90;99.90
55173;DHT22;41061;52.822;6.860;2023-11-19T08:09:50;11.90;99.90
55173;DHT22;41061;52.822;6.860;2023-11-19T08:12:16;12.00;99.90
55173;DHT22;41061;52.822;6.860;2023-11-19T08:14:43;11.90;99.90
55173;DHT22;41061;52.822;6.860;2023-11-19T08:17:09;11.90;99.90
55173;DHT22;41061;52.822;6.860;2023-11-19T08:19:35;11.90;99.90
55173;DHT22;41061;52.822;6.860;2023-11-19T08:22:01;11.90;99.90
55173;DHT22;41061;52.822;6.860;2023-11-19T08:24:27;11.90;99.90
55173;DHT22;41061;52.822;6.860;2023-11-19T08:26:53;12.00;99.90
55173;DHT22;41061;52.822;6.860;2023-11-19T08:29:19;11.90;99.90
55173;DHT22;41061;52.822;6.860;2023-11-19T08:31:45;11.90;99.90
55173;DHT22;41061;52.822;6.860;2023-11-19T08:34:11;11.90;99.90
55173;DHT22;41061;52.822;6.860;2023-11-19T08:36:37;11.90;99.90
55173;DHT22;41061;52.822;6.860;2023-11-19T08:39:03;11.80;99.90
55173;DHT22;41061;52.822;6.860;2023-11-19T08:41:29;11.90;99.90
55173;DHT22;41061;52.822;6.860;2023-11-19T08:43:55;11.80;99.90
55173;DHT22;41061;52.822;6.860;2023-11-19T08:46:21;11.70;99.90
55173;DHT22;41061;52.822;6.860;2023-11-19T08:48:47;11.70;99.90
55173;DHT22;41061;52.822;6.860;2023-11-19T08:51:12;11.80;99.90
55173;DHT22;41061;52.822;6.860;2023-11-19T08:53:38;11.70;99.90
55173;DHT22;41061;52.822;6.860;2023-11-19T08:56:04;11.70;99.90
55173;DHT22;41061;52.822;6.860;2023-11-19T08:58:30;11.70;99.90
55173;DHT22;41061;52.822;6.860;2023-11-19T09:00:56;11.70;99.90
55173;DHT22;41061;52.822;6.860;2023-11-19T09:03:22;11.60;99.90
55173;DHT22;41061;52.822;6.860;2023-11-19T09:05:48;11.60;99.90
55173;DHT22;41061;52.822;6.860;2023-11-19T09:08:14;11.60;99.90
55173;DHT22;41061;52.822;6.860;2023-11-19T09:10:39;11.60;99.90
55173;DHT22;41061;52.822;6.860;2023-11-19T09:13:05;11.60;99.90
55173;DHT22;41061;52.822;6.860;2023-11-19T09:15:31;11.50;99.90
55173;DHT22;41061;52.822;6.860;2023-11-19T09:17:56;11.50;99.90
55173;DHT22;41061;52.822;6.860;2023-11-19T09:20:22;11.60;99.90
55173;DHT22;41061;52.822;6.860;2023-11-19T09:22:48;11.70;99.90
55173;DHT22;41061;52.822;6.860;2023-11-19T09:25:13;11.60;99.90
55173;DHT22;41061;52.822;6.860;2023-11-19T09:27:43;11.60;99.90
55173;DHT22;41061;52.822;6.860;2023-11-19T09:30:09;11.60;99.90
55173;DHT22;41061;52.822;6.860;2023-11-19T09:32:35;11.70;99.90
55173;DHT22;41061;52.822;6.860;2023-11-19T09:35:00;11.80;99.90
55173;DHT22;41061;52.822;6.860;2023-11-19T09:37:28;11.70;99.90
55173;DHT22;41061;52.822;6.860;2023-11-19T09:39:54;11.80;99.90
55173;DHT22;41061;52.822;6.860;2023-11-19T09:42:20;11.80;99.90
55173;DHT22;41061;52.822;6.860;2023-11-19T09:44:47;11.70;99.90
55173;DHT22;41061;52.822;6.860;2023-11-19T09:47:14;11.70;99.90
55173;DHT22;41061;52.822;6.860;2023-11-19T09:49:40;11.70;99.90
55173;DHT22;41061;52.822;6.860;2023-11-19T09:52:06;11.70;99.90
55173;DHT22;41061;52.822;6.860;2023-11-19T09:54:31;11.80;99.90
55173;DHT22;41061;52.822;6.860;2023-11-19T09:56:58;11.80;99.90
55173;DHT22;41061;52.822;6.860;2023-11-19T09:59:30;11.80;99.90
55173;DHT22;41061;52.822;6.860;2023-11-19T10:01:57;11.90;99.90
55173;DHT22;41061;52.822;6.860;2023-11-19T10:04:23;11.90;99.90
55173;DHT22;41061;52.822;6.860;2023-11-19T10:06:50;11.90;99.90
55173;DHT22;41061;52.822;6.860;2023-11-19T10:09:16;12.00;99.90
55173;DHT22;41061;52.822;6.860;2023-11-19T10:11:43;12.00;99.90
55173;DHT22;41061;52.822;6.860;2023-11-19T10:14:09;12.00;99.90
55173;DHT22;41061;52.822;6.860;2023-11-19T10:16:35;12.00;99.90
55173;DHT22;41061;52.822;6.860;2023-11-19T10:19:01;11.90;99.90
55173;DHT22;41061;52.822;6.860;2023-11-19T10:21:27;12.00;99.90
55173;DHT22;41061;52.822;6.860;2023-11-19T10:23:57;11.90;99.90
55173;DHT22;41061;52.822;6.860;2023-11-19T10:26:26;11.90;99.90
55173;DHT22;41061;52.822;6.860;2023-11-19T10:28:53;11.80;99.90
55173;DHT22;41061;52.822;6.860;2023-11-19T10:31:20;11.80;99.90
55173;DHT22;41061;52.822;6.860;2023-11-19T10:33:50;11.80;99.90
55173;DHT22;41061;52.822;6.860;2023-11-19T10:36:17;11.80;99.90
55173;DHT22;41061;52.822;6.860;2023-11-19T10:38:55;11.80;99.90
55173;DHT22;41061;52.822;6.860;2023-11-19T10:41:31;11.90;99.90
55173;DHT22;41061;52.822;6.860;2023-11-19T10:46:39;12.00;99.90
55173;DHT22;41061;52.822;6.860;2023-11-19T10:49:09;11.90;99.90
55173;DHT22;41061;52.822;6.860;2023-11-19T10:51:35;12.00;99.90
55173;DHT22;41061;52.822;6.860;2023-11-19T10:54:04;12.00;99.90
55173;DHT22;41061;52.822;6.860;2023-11-19T10:56:34;11.90;99.90
55173;DHT22;41061;52.822;6.860;2023-11-19T10:59:01;12.00;99.90
55173;DHT22;41061;52.822;6.860;2023-11-19T11:01:39;11.90;99.90
55173;DHT22;41061;52.822;6.860;2023-11-19T11:04:14;11.80;99.90
55173;DHT22;41061;52.822;6.860;2023-11-19T11:06:43;11.80;99.90
55173;DHT22;41061;52.822;6.860;2023-11-19T11:09:09;11.80;99.90
55173;DHT22;41061;52.822;6.860;2023-11-19T11:11:44;11.80;99.90
55173;DHT22;41061;52.822;6.860;2023-11-19T11:14:13;11.80;99.90
55173;DHT22;41061;52.822;6.860;2023-11-19T11:16:46;11.80;99.90
55173;DHT22;41061;52.822;6.860;2023-11-19T11:19:14;11.80;99.90
55173;DHT22;41061;52.822;6.860;2023-11-19T11:21:43;11.90;99.90
55173;DHT22;41061;52.822;6.860;2023-11-19T11:27:42;11.90;99.90
55173;DHT22;41061;52.822;6.860;2023-11-19T11:33:05;11.90;99.90
55173;DHT22;41061;52.822;6.860;2023-11-19T11:35:46;11.90;99.90
55173;DHT22;41061;52.822;6.860;2023-11-19T11:38:16;12.00;99.90
55173;DHT22;41061;52.822;6.860;2023-11-19T11:49:06;12.10;99.90
55173;DHT22;41061;52.822;6.860;2023-11-19T11:59:48;12.10;99.90
55173;DHT22;41061;52.822;6.860;2023-11-19T12:02:16;12.00;99.90
55173;DHT22;41061;52.822;6.860;2023-11-19T12:04:43;12.00;99.90
55173;DHT22;41061;52.822;6.860;2023-11-19T12:07:19;12.00;99.90
55173;DHT22;41061;52.822;6.860;2023-11-19T12:10:05;11.90;99.90
55173;DHT22;41061;52.822;6.860;2023-11-19T12:12:33;11.90;99.90
55173;DHT22;41061;52.822;6.860;2023-11-19T12:15:00;11.90;99.90
55173;DHT22;41061;52.822;6.860;2023-11-19T12:17:48;12.00;99.90
55173;DHT22;41061;52.822;6.860;2023-11-19T12:20:15;11.90;99.90
55173;DHT22;41061;52.822;6.860;2023-11-19T12:22:43;11.90;99.90
55173;DHT22;41061;52.822;6.860;2023-11-19T12:25:10;11.90;99.90
55173;DHT22;41061;52.822;6.860;2023-11-19T12:27:39;11.90;99.90
55173;DHT22;41061;52.822;6.860;2023-11-19T12:30:06;11.80;99.90
55173;DHT22;41061;52.822;6.860;2023-11-19T12:32:44;11.80;99.90
55173;DHT22;41061;52.822;6.860;2023-11-19T12:35:10;11.70;99.90
55173;DHT22;41061;52.822;6.860;2023-11-19T12:40:17;11.60;99.90
55173;DHT22;41061;52.822;6.860;2023-11-19T12:42:44;11.60;99.90
55173;DHT22;41061;52.822;6.860;2023-11-19T12:45:10;11.60;99.90
55173;DHT22;41061;52.822;6.860;2023-11-19T12:47:37;11.60;99.90
55173;DHT22;41061;52.822;6.860;2023-11-19T12:50:03;11.50;99.90
55173;DHT22;41061;52.822;6.860;2023-11-19T12:52:30;11.50;99.90
55173;DHT22;41061;52.822;6.860;2023-11-19T12:54:56;11.60;99.90
55173;DHT22;41061;52.822;6.860;2023-11-19T12:57:42;11.60;99.90
55173;DHT22;41061;52.822;6.860;2023-11-19T13:00:19;11.60;99.90
55173;DHT22;41061;52.822;6.860;2023-11-19T13:02:49;11.60;99.90
55173;DHT22;41061;52.822;6.860;2023-11-19T13:05:35;11.60;99.90
55173;DHT22;41061;52.822;6.860;2023-11-19T13:08:05;11.60;99.90
55173;DHT22;41061;52.822;6.860;2023-11-19T13:10:32;11.60;99.90
55173;DHT22;41061;52.822;6.860;2023-11-19T13:13:01;11.70;99.90
55173;DHT22;41061;52.822;6.860;2023-11-19T13:15:27;11.70;99.90
55173;DHT22;41061;52.822;6.860;2023-11-19T13:17:53;11.70;99.90
55173;DHT22;41061;52.822;6.860;2023-11-19T13:20:18;11.70;99.90
55173;DHT22;41061;52.822;6.860;2023-11-19T13:23:02;11.70;99.90
55173;DHT22;41061;52.822;6.860;2023-11-19T13:25:28;11.80;99.90
55173;DHT22;41061;52.822;6.860;2023-11-19T13:27:55;11.70;99.90
55173;DHT22;41061;52.822;6.860;2023-11-19T13:30:21;11.80;99.90
55173;DHT22;41061;52.822;6.860;2023-11-19T13:32:48;11.80;99.90
55173;DHT22;41061;52.822;6.860;2023-11-19T13:35:14;11.70;99.90
55173;DHT22;41061;52.822;6.860;2023-11-19T13:37:40;11.70;99.90
55173;DHT22;41061;52.822;6.860;2023-11-19T13:40:09;11.80;99.90
55173;DHT22;41061;52.822;6.860;2023-11-19T13:42:37;11.80;99.90
55173;DHT22;41061;52.822;6.860;2023-11-19T13:45:08;11.80;99.90
55173;DHT22;41061;52.822;6.860;2023-11-19T13:47:36;11.80;99.90
55173;DHT22;41061;52.822;6.860;2023-11-19T13:50:02;11.80;99.90
55173;DHT22;41061;52.822;6.860;2023-11-19T13:52:31;11.80;99.90
55173;DHT22;41061;52.822;6.860;2023-11-19T13:54:57;11.80;99.90
55173;DHT22;41061;52.822;6.860;2023-11-19T13:57:22;11.90;99.90
55173;DHT22;41061;52.822;6.860;2023-11-19T13:59:48;11.90;99.90
55173;DHT22;41061;52.822;6.860;2023-11-19T14:02:14;11.90;99.90
55173;DHT22;41061;52.822;6.860;2023-11-19T14:04:40;11.90;99.90
55173;DHT22;41061;52.822;6.860;2023-11-19T14:07:06;11.90;99.90
55173;DHT22;41061;52.822;6.860;2023-11-19T14:09:32;11.90;99.90
55173;DHT22;41061;52.822;6.860;2023-11-19T14:11:58;12.00;99.90
55173;DHT22;41061;52.822;6.860;2023-11-19T14:14:24;11.90;99.90
55173;DHT22;41061;52.822;6.860;2023-11-19T14:16:49;11.90;99.90
55173;DHT22;41061;52.822;6.860;2023-11-19T14:19:15;11.90;99.90
55173;DHT22;41061;52.822;6.860;2023-11-19T14:21:41;11.90;99.90
55173;DHT22;41061;52.822;6.860;2023-11-19T14:24:07;11.90;99.90
55173;DHT22;41061;52.822;6.860;2023-11-19T14:26:32;11.80;99.90
55173;DHT22;41061;52.822;6.860;2023-11-19T14:28:58;11.80;99.90
55173;DHT22;41061;52.822;6.860;2023-11-19T14:31:27;11.80;99.90
55173;DHT22;41061;52.822;6.860;2023-11-19T14:33:53;11.70;99.90
55173;DHT22;41061;52.822;6.860;2023-11-19T14:36:19;11.60;99.90
55173;DHT22;41061;52.822;6.860;2023-11-19T14:38:45;11.60;99.90
55173;DHT22;41061;52.822;6.860;2023-11-19T14:41:10;11.50;99.90
55173;DHT22;41061;52.822;6.860;2023-11-19T14:43:36;11.50;99.90
55173;DHT22;41061;52.822;6.860;2023-11-19T14:46:02;11.50;99.90
55173;DHT22;41061;52.822;6.860;2023-11-19T14:48:29;11.40;99.90
55173;DHT22;41061;52.822;6.860;2023-11-19T14:50:54;11.40;99.90
55173;DHT22;41061;52.822;6.860;2023-11-19T14:53:20;11.30;99.90
55173;DHT22;41061;52.822;6.860;2023-11-19T14:55:46;11.30;99.90
55173;DHT22;41061;52.822;6.860;2023-11-19T14:58:11;11.30;99.90
55173;DHT22;41061;52.822;6.860;2023-11-19T15:00:39;11.20;99.90
55173;DHT22;41061;52.822;6.860;2023-11-19T15:03:04;11.20;99.90
55173;DHT22;41061;52.822;6.860;2023-11-19T15:05:31;11.20;99.90
55173;DHT22;41061;52.822;6.860;2023-11-19T15:07:57;11.20;99.90
55173;DHT22;41061;52.822;6.860;2023-11-19T15:10:23;11.20;99.90
55173;DHT22;41061;52.822;6.860;2023-11-19T15:12:50;11.30;99.90
55173;DHT22;41061;52.822;6.860;2023-11-19T15:15:15;11.30;99.90
55173;DHT22;41061;52.822;6.860;2023-11-19T15:17:41;11.30;99.90
55173;DHT22;41061;52.822;6.860;2023-11-19T15:20:07;11.30;99.90
55173;DHT22;41061;52.822;6.860;2023-11-19T15:22:33;11.30;99.90
55173;DHT22;41061;52.822;6.860;2023-11-19T15:24:59;11.30;99.90
55173;DHT22;41061;52.822;6.860;2023-11-19T15:27:25;11.30;99.90
55173;DHT22;41061;52.822;6.860;2023-11-19T15:29:51;11.30;99.90
55173;DHT22;41061;52.822;6.860;2023-11-19T15:32:18;11.30;99.90
55173;DHT22;41061;52.822;6.860;2023-11-19T15:34:43;11.30;99.90
55173;DHT22;41061;52.822;6.860;2023-11-19T15:37:09;11.30;99.90
55173;DHT22;41061;52.822;6.860;2023-11-19T15:39:37;11.30;99.90
55173;DHT22;41061;52.822;6.860;2023-11-19T15:42:03;11.30;99.90
55173;DHT22;41061;52.822;6.860;2023-11-19T15:44:29;11.30;99.90
55173;DHT22;41061;52.822;6.860;2023-11-19T15:46:55;11.20;99.90
55173;DHT22;41061;52.822;6.860;2023-11-19T15:49:21;11.20;99.90
55173;DHT22;41061;52.822;6.860;2023-11-19T15:51:47;11.20;99.90
55173;DHT22;41061;52.822;6.860;2023-11-19T15:54:13;11.20;99.90
55173;DHT22;41061;52.822;6.860;2023-11-19T15:56:38;11.30;99.90
55173;DHT22;41061;52.822;6.860;2023-11-19T15:59:04;11.20;99.90
55173;DHT22;41061;52.822;6.860;2023-11-19T16:01:30;11.30;99.90
55173;DHT22;41061;52.822;6.860;2023-11-19T16:03:56;11.30;99.90
55173;DHT22;41061;52.822;6.860;2023-11-19T16:06:22;11.30;99.90
55173;DHT22;41061;52.822;6.860;2023-11-19T16:08:48;11.30;99.90
55173;DHT22;41061;52.822;6.860;2023-11-19T16:11:15;11.30;99.90
55173;DHT22;41061;52.822;6.860;2023-11-19T16:13:42;11.30;99.90
55173;DHT22;41061;52.822;6.860;2023-11-19T16:16:08;11.20;99.90
55173;DHT22;41061;52.822;6.860;2023-11-19T16:18:34;11.30;99.90
55173;DHT22;41061;52.822;6.860;2023-11-19T16:21:00;11.30;99.90
55173;DHT22;41061;52.822;6.860;2023-11-19T16:23:27;11.30;99.90
55173;DHT22;41061;52.822;6.860;2023-11-19T16:25:53;11.30;99.90
55173;DHT22;41061;52.822;6.860;2023-11-19T16:28:19;11.30;99.90
55173;DHT22;41061;52.822;6.860;2023-11-19T16:30:45;11.30;99.90
55173;DHT22;41061;52.822;6.860;2023-11-19T16:33:11;11.20;99.90
55173;DHT22;41061;52.822;6.860;2023-11-19T16:35:36;11.20;99.90
55173;DHT22;41061;52.822;6.860;2023-11-19T16:38:02;11.20;99.90
55173;DHT22;41061;52.822;6.860;2023-11-19T16:40:28;11.10;99.90
55173;DHT22;41061;52.822;6.860;2023-11-19T16:42:54;11.10;99.90
55173;DHT22;41061;52.822;6.860;2023-11-19T16:45:20;11.10;99.90
55173;DHT22;41061;52.822;6.860;2023-11-19T16:47:47;11.10;99.90
55173;DHT22;41061;52.822;6.860;2023-11-19T16:50:13;11.00;99.90
55173;DHT22;41061;52.822;6.860;2023-11-19T16:52:42;11.00;99.90
55173;DHT22;41061;52.822;6.860;2023-11-19T16:55:08;11.00;99.90
55173;DHT22;41061;52.822;6.860;2023-11-19T16:57:40;11.10;99.90
55173;DHT22;41061;52.822;6.860;2023-11-19T17:00:07;11.10;99.90
55173;DHT22;41061;52.822;6.860;2023-11-19T17:02:33;11.00;99.90
55173;DHT22;41061;52.822;6.860;2023-11-19T17:04:59;11.00;99.90
55173;DHT22;41061;52.822;6.860;2023-11-19T17:07:25;11.00;99.90
55173;DHT22;41061;52.822;6.860;2023-11-19T17:09:51;11.00;99.90
55173;DHT22;41061;52.822;6.860;2023-11-19T17:12:16;11.00;99.90
55173;DHT22;41061;52.822;6.860;2023-11-19T17:14:42;11.00;99.90
55173;DHT22;41061;52.822;6.860;2023-11-19T17:17:08;11.00;99.90
55173;DHT22;41061;52.822;6.860;2023-11-19T17:19:33;11.00;99.90
55173;DHT22;41061;52.822;6.860;2023-11-19T17:21:59;11.00;99.90
55173;DHT22;41061;52.822;6.860;2023-11-19T17:24:25;11.00;99.90
55173;DHT22;41061;52.822;6.860;2023-11-19T17:26:51;11.00;99.90
55173;DHT22;41061;52.822;6.860;2023-11-19T17:29:16;11.00;99.90
55173;DHT22;41061;52.822;6.860;2023-11-19T17:31:43;11.00;99.90
55173;DHT22;41061;52.822;6.860;2023-11-19T17:34:10;11.10;99.90
55173;DHT22;41061;52.822;6.860;2023-11-19T17:36:36;11.00;99.90
55173;DHT22;41061;52.822;6.860;2023-11-19T17:39:02;11.00;99.90
55173;DHT22;41061;52.822;6.860;2023-11-19T17:41:30;11.00;99.90
55173;DHT22;41061;52.822;6.860;2023-11-19T17:43:56;11.00;99.90
55173;DHT22;41061;52.822;6.860;2023-11-19T17:46:21;11.00;99.90
55173;DHT22;41061;52.822;6.860;2023-11-19T17:48:47;11.00;99.90
55173;DHT22;41061;52.822;6.860;2023-11-19T17:51:13;11.00;99.90
55173;DHT22;41061;52.822;6.860;2023-11-19T17:53:45;11.00;99.90
55173;DHT22;41061;52.822;6.860;2023-11-19T17:56:11;11.00;99.90
55173;DHT22;41061;52.822;6.860;2023-11-19T17:58:37;11.00;99.90
55173;DHT22;41061;52.822;6.860;2023-11-19T18:01:03;11.00;99.90
55173;DHT22;41061;52.822;6.860;2023-11-19T18:03:30;11.00;99.90
55173;DHT22;41061;52.822;6.860;2023-11-19T18:05:56;10.90;99.90
55173;DHT22;41061;52.822;6.860;2023-11-19T18:08:21;11.00;99.90
55173;DHT22;41061;52.822;6.860;2023-11-19T18:10:48;10.90;99.90
55173;DHT22;41061;52.822;6.860;2023-11-19T18:13:14;11.00;99.90
55173;DHT22;41061;52.822;6.860;2023-11-19T18:15:41;10.90;99.90
55173;DHT22;41061;52.822;6.860;2023-11-19T18:18:07;10.90;99.90
55173;DHT22;41061;52.822;6.860;2023-11-19T18:20:34;10.90;99.90
55173;DHT22;41061;52.822;6.860;2023-11-19T18:23:00;10.90;99.90
55173;DHT22;41061;52.822;6.860;2023-11-19T18:25:26;11.00;99.90
55173;DHT22;41061;52.822;6.860;2023-11-19T18:27:52;10.90;99.90
55173;DHT22;41061;52.822;6.860;2023-11-19T18:30:18;10.90;99.90
55173;DHT22;41061;52.822;6.860;2023-11-19T18:32:45;10.90;99.90
55173;DHT22;41061;52.822;6.860;2023-11-19T18:35:11;11.00;99.90
55173;DHT22;41061;52.822;6.860;2023-11-19T18:37:40;11.00;99.90
55173;DHT22;41061;52.822;6.860;2023-11-19T18:40:07;11.00;99.90
55173;DHT22;41061;52.822;6.860;2023-11-19T18:42:37;11.00;99.90
55173;DHT22;41061;52.822;6.860;2023-11-19T18:45:03;11.00;99.90
55173;DHT22;41061;52.822;6.860;2023-11-19T18:47:30;11.00;99.90
55173;DHT22;41061;52.822;6.860;2023-11-19T18:49:56;11.00;99.90
55173;DHT22;41061;52.822;6.860;2023-11-19T18:52:22;11.00;99.90
55173;DHT22;41061;52.822;6.860;2023-11-19T18:54:47;11.10;99.90
55173;DHT22;41061;52.822;6.860;2023-11-19T18:57:13;11.10;99.90
55173;DHT22;41061;52.822;6.860;2023-11-19T18:59:39;11.10;99.90
55173;DHT22;41061;52.822;6.860;2023-11-19T19:02:04;11.10;99.90
55173;DHT22;41061;52.822;6.860;2023-11-19T19:04:31;11.10;99.90
55173;DHT22;41061;52.822;6.860;2023-11-19T19:06:57;11.10;99.90
55173;DHT22;41061;52.822;6.860;2023-11-19T19:09:23;11.10;99.90
55173;DHT22;41061;52.822;6.860;2023-11-19T19:11:49;11.10;99.90
55173;DHT22;41061;52.822;6.860;2023-11-19T19:14:16;11.10;99.90
55173;DHT22;41061;52.822;6.860;2023-11-19T19:16:41;11.00;99.90
55173;DHT22;41061;52.822;6.860;2023-11-19T19:19:07;11.10;99.90
55173;DHT22;41061;52.822;6.860;2023-11-19T19:21:33;11.00;99.90
55173;DHT22;41061;52.822;6.860;2023-11-19T19:23:58;11.10;99.90
55173;DHT22;41061;52.822;6.860;2023-11-19T19:26:29;11.00;99.90
55173;DHT22;41061;52.822;6.860;2023-11-19T19:28:58;11.00;99.90
55173;DHT22;41061;52.822;6.860;2023-11-19T19:31:24;11.10;99.90
55173;DHT22;41061;52.822;6.860;2023-11-19T19:33:51;11.10;99.90
55173;DHT22;41061;52.822;6.860;2023-11-19T19:36:24;11.10;99.90
55173;DHT22;41061;52.822;6.860;2023-11-19T19:38:50;11.10;99.90
55173;DHT22;41061;52.822;6.860;2023-11-19T19:41:16;11.10;99.90
55173;DHT22;41061;52.822;6.860;2023-11-19T19:43:42;11.10;99.90
55173;DHT22;41061;52.822;6.860;2023-11-19T19:46:08;11.10;99.90
55173;DHT22;41061;52.822;6.860;2023-11-19T19:48:36;11.10;99.90
55173;DHT22;41061;52.822;6.860;2023-11-19T19:51:02;11.10;99.90
55173;DHT22;41061;52.822;6.860;2023-11-19T19:53:29;11.10;99.90
55173;DHT22;41061;52.822;6.860;2023-11-19T19:55:55;11.10;99.90
55173;DHT22;41061;52.822;6.860;2023-11-19T19:58:21;11.10;99.90
55173;DHT22;41061;52.822;6.860;2023-11-19T20:00:47;11.20;99.90
55173;DHT22;41061;52.822;6.860;2023-11-19T20:03:13;11.10;99.90
55173;DHT22;41061;52.822;6.860;2023-11-19T20:05:39;11.10;99.90
55173;DHT22;41061;52.822;6.860;2023-11-19T20:08:06;11.20;99.90
55173;DHT22;41061;52.822;6.860;2023-11-19T20:10:32;11.20;99.90
55173;DHT22;41061;52.822;6.860;2023-11-19T20:12:59;11.20;99.90
55173;DHT22;41061;52.822;6.860;2023-11-19T20:15:35;11.20;99.90
55173;DHT22;41061;52.822;6.860;2023-11-19T20:18:01;11.20;99.90
55173;DHT22;41061;52.822;6.860;2023-11-19T20:20:27;11.30;99.90
55173;DHT22;41061;52.822;6.860;2023-11-19T20:22:52;11.30;99.90
55173;DHT22;41061;52.822;6.860;2023-11-19T20:25:18;11.20;99.90
55173;DHT22;41061;52.822;6.860;2023-11-19T20:27:44;11.30;99.90
55173;DHT22;41061;52.822;6.860;2023-11-19T20:30:11;11.20;99.90
55173;DHT22;41061;52.822;6.860;2023-11-19T20:32:37;11.30;99.90
55173;DHT22;41061;52.822;6.860;2023-11-19T20:35:04;11.30;99.90
55173;DHT22;41061;52.822;6.860;2023-11-19T20:37:30;11.30;99.90
55173;DHT22;41061;52.822;6.860;2023-11-19T20:39:57;11.20;99.90
55173;DHT22;41061;52.822;6.860;2023-11-19T20:42:23;11.30;99.90
55173;DHT22;41061;52.822;6.860;2023-11-19T20:44:48;11.30;99.90
55173;DHT22;41061;52.822;6.860;2023-11-19T20:47:14;11.40;99.90
55173;DHT22;41061;52.822;6.860;2023-11-19T20:49:40;11.40;99.90
55173;DHT22;41061;52.822;6.860;2023-11-19T20:52:05;11.40;99.90
55173;DHT22;41061;52.822;6.860;2023-11-19T20:54:31;11.40;99.90
55173;DHT22;41061;52.822;6.860;2023-11-19T20:56:57;11.40;99.90